Time;durP1;ratioP1;P1;durP2;ratioP2;P2;SDS_P1;SDS_P2;PMS_P1;PMS_P2;Temp;Humidity;BMP_temperature;BMP_pressure;BME280_temperature;BME280_humidity;BME280_pressure;Samples;Min_cycle;Max_cycle;Signal;HPM_P1;HPM_P2
2022/10/02 00:00:12;;;;;;;2.75;1.77;;;;;;;;;;5044959;28;20044;-67
2022/10/02 00:02:38;;;;;;;2.65;1.30;;;;;;;;;;5048726;28;20061;-68
2022/10/02 00:05:27;;;;;;;8.98;1.75;;;;;;;;;;5056259;28;20408;-68
2022/10/02 00:08:04;;;;;;;3.78;1.60;;;;;;;;;;5051550;28;20065;-68
2022/10/02 00:10:33;;;;;;;4.72;1.77;;;;;;;;;;5052151;28;20041;-68
2022/10/02 00:13:05;;;;;;;4.28;1.77;;;;;;;;;;5044937;28;20053;-68
2022/10/02 00:15:33;;;;;;;4.07;1.80;;;;;;;;;;5059160;28;20045;-69
2022/10/02 00:18:04;;;;;;;4.55;1.83;;;;;;;;;;5060889;28;20518;-68
2022/10/02 00:20:53;;;;;;;3.20;1.53;;;;;;;;;;5051374;28;20605;-68
2022/10/02 00:23:24;;;;;;;4.65;1.80;;;;;;;;;;5029124;28;20325;-68
2022/10/02 00:26:01;;;;;;;2.45;1.58;;;;;;;;;;5043451;28;20056;-67
2022/10/02 00:28:28;;;;;;;4.93;1.45;;;;;;;;;;5050524;28;20049;-68
2022/10/02 00:31:12;;;;;;;7.72;1.52;;;;;;;;;;5048734;28;20566;-67
2022/10/02 00:33:47;;;;;;;4.47;1.90;;;;;;;;;;5049252;28;20171;-68
2022/10/02 00:36:28;;;;;;;4.88;2.45;;;;;;;;;;5047108;28;20567;-68
2022/10/02 00:38:54;;;;;;;3.53;1.40;;;;;;;;;;5049509;28;20064;-67
2022/10/02 00:41:21;;;;;;;3.10;1.30;;;;;;;;;;5059618;28;20067;-68
2022/10/02 00:44:02;;;;;;;2.80;2.00;;;;;;;;;;5044438;28;20040;-68
2022/10/02 00:47:01;;;;;;;6.65;1.95;;;;;;;;;;5049704;28;20029;-67
2022/10/02 00:49:36;;;;;;;4.78;1.40;;;;;;;;;;5024449;28;20119;-67
2022/10/02 00:52:02;;;;;;;3.35;2.13;;;;;;;;;;5057526;28;20037;-67
2022/10/02 00:54:44;;;;;;;2.80;1.30;;;;;;;;;;5058685;28;20682;-67
2022/10/02 00:57:10;;;;;;;1.60;1.00;;;;;;;;;;5040434;28;20504;-66
2022/10/02 00:59:49;;;;;;;6.10;2.42;;;;;;;;;;5059798;28;20037;-68
2022/10/02 01:02:41;;;;;;;2.08;1.15;;;;;;;;;;5049450;28;20045;-67
2022/10/02 01:05:07;;;;;;;;;;;;;;;;;;5027901;28;20060;-67
2022/10/02 01:07:36;;;;;;;6.22;1.85;;;;;;;;;;5063145;28;19920;-68
2022/10/02 01:10:02;;;;;;;1.15;0.90;;;;;;;;;;5059501;28;20041;-68
2022/10/02 01:12:28;;;;;;;4.28;1.50;;;;;;;;;;5061653;28;20514;-68
2022/10/02 01:14:54;;;;;;;2.28;1.38;;;;;;;;;;5057502;28;20617;-68
2022/10/02 01:17:20;;;;;;;4.05;1.20;;;;;;;;;;5047511;28;20075;-67
2022/10/02 01:19:46;;;;;;;2.70;1.00;;;;;;;;;;5050972;28;20084;-67
2022/10/02 01:22:16;;;;;;;5.55;1.20;;;;;;;;;;5050387;28;20155;-68
2022/10/02 01:24:52;;;;;;;2.95;1.27;;;;;;;;;;5068395;28;20057;-67
2022/10/02 01:27:18;;;;;;;3.72;1.10;;;;;;;;;;5071063;28;20136;-67
2022/10/02 01:29:45;;;;;;;3.15;1.55;;;;;;;;;;5069201;28;20232;-67
2022/10/02 01:32:12;;;;;;;3.17;1.15;;;;;;;;;;5071133;28;20060;-67
2022/10/02 01:34:38;;;;;;;2.63;1.20;;;;;;;;;;5071219;28;20127;-67
2022/10/02 01:37:04;;;;;;;1.08;0.68;;;;;;;;;;5070709;28;20198;-67
2022/10/02 01:39:31;;;;;;;1.25;0.95;;;;;;;;;;5071160;28;20048;-67
2022/10/02 01:41:57;;;;;;;0.95;0.70;;;;;;;;;;5069214;28;20045;-67
2022/10/02 01:44:24;;;;;;;1.75;0.88;;;;;;;;;;5070018;28;20132;-67
2022/10/02 01:46:54;;;;;;;3.95;1.20;;;;;;;;;;5072750;28;20074;-67
2022/10/02 01:49:24;;;;;;;0.93;0.77;;;;;;;;;;5070814;28;20041;-68
2022/10/02 01:52:09;;;;;;;1.70;0.80;;;;;;;;;;5070598;28;20055;-67
2022/10/02 01:54:35;;;;;;;1.00;0.57;;;;;;;;;;5074686;28;20557;-67
2022/10/02 01:57:01;;;;;;;2.45;0.98;;;;;;;;;;5070605;28;20045;-67
2022/10/02 01:59:35;;;;;;;1.50;0.90;;;;;;;;;;5074397;28;21221;-67
2022/10/02 02:02:09;;;;;;;1.48;1.38;;;;;;;;;;5070439;28;20062;-67
2022/10/02 02:04:37;;;;;;;1.25;0.65;;;;;;;;;;5072882;28;20037;-67
2022/10/02 02:07:09;;;;;;;0.77;0.65;;;;;;;;;;5071466;28;20032;-68
2022/10/02 02:09:35;;;;;;;;;;;;;;;;;;5072492;28;20677;-67
2022/10/02 02:12:18;;;;;;;0.63;0.60;;;;;;;;;;5072497;28;20019;-67
2022/10/02 02:14:50;;;;;;;0.52;0.45;;;;;;;;;;5070673;28;20049;-67
2022/10/02 02:17:16;;;;;;;0.55;0.50;;;;;;;;;;5073283;28;20036;-67
2022/10/02 02:19:45;;;;;;;0.75;0.43;;;;;;;;;;5072724;28;20036;-67
2022/10/02 02:22:17;;;;;;;0.52;0.47;;;;;;;;;;5069933;28;20098;-67
2022/10/02 02:24:51;;;;;;;2.97;0.70;;;;;;;;;;5073646;28;20060;-67
2022/10/02 02:27:18;;;;;;;0.60;0.60;;;;;;;;;;5060667;28;20044;-68
2022/10/02 02:29:46;;;;;;;0.40;0.40;;;;;;;;;;5067885;28;20045;-67
2022/10/02 02:32:14;;;;;;;0.82;0.55;;;;;;;;;;5070969;28;20045;-67
2022/10/02 02:34:43;;;;;;;0.40;0.40;;;;;;;;;;5069800;28;20124;-67
2022/10/02 02:37:12;;;;;;;0.30;0.30;;;;;;;;;;5071659;28;20055;-67
2022/10/02 02:39:44;;;;;;;0.57;0.50;;;;;;;;;;5065972;28;20638;-67
2022/10/02 02:42:13;;;;;;;2.00;0.70;;;;;;;;;;5065679;28;20677;-67
2022/10/02 02:45:00;;;;;;;0.45;0.35;;;;;;;;;;5069911;28;20045;-67
2022/10/02 02:47:37;;;;;;;0.45;0.45;;;;;;;;;;5071312;28;20037;-67
2022/10/02 02:50:15;;;;;;;0.85;0.50;;;;;;;;;;5052939;28;20045;-67
2022/10/02 02:52:41;;;;;;;0.57;0.55;;;;;;;;;;5070371;28;20036;-67
2022/10/02 02:55:19;;;;;;;1.70;0.52;;;;;;;;;;5069730;28;20055;-67
2022/10/02 02:58:14;;;;;;;1.08;0.50;;;;;;;;;;5068768;28;20049;-67
2022/10/02 03:00:40;;;;;;;0.40;0.40;;;;;;;;;;4997334;28;20129;-67
2022/10/02 03:03:06;;;;;;;0.85;0.50;;;;;;;;;;5072904;28;20045;-67
2022/10/02 03:05:33;;;;;;;0.98;0.43;;;;;;;;;;5067990;28;20211;-67
2022/10/02 03:08:01;;;;;;;1.90;0.40;;;;;;;;;;5071205;28;20483;-67
2022/10/02 03:10:50;;;;;;;1.10;0.60;;;;;;;;;;5051846;28;20506;-67
2022/10/02 03:13:19;;;;;;;0.75;0.50;;;;;;;;;;5069554;28;20147;-67
2022/10/02 03:15:49;;;;;;;3.70;0.77;;;;;;;;;;5072210;28;20049;-67
2022/10/02 03:18:34;;;;;;;0.60;0.40;;;;;;;;;;5068743;28;20128;-67
2022/10/02 03:21:00;;;;;;;0.45;0.40;;;;;;;;;;5069396;28;20123;-67
2022/10/02 03:23:26;;;;;;;1.42;1.17;;;;;;;;;;5069445;28;20053;-67
2022/10/02 03:25:58;;;;;;;0.47;0.47;;;;;;;;;;5072353;28;20040;-67
2022/10/02 03:28:28;;;;;;;1.98;0.73;;;;;;;;;;5073281;28;20044;-67
2022/10/02 03:30:55;;;;;;;2.03;0.70;;;;;;;;;;5071877;28;20514;-67
2022/10/02 03:33:22;;;;;;;2.30;0.77;;;;;;;;;;5072651;28;20051;-67
2022/10/02 03:35:49;;;;;;;1.85;0.68;;;;;;;;;;5072603;28;20604;-67
2022/10/02 03:38:16;;;;;;;0.90;0.50;;;;;;;;;;5071736;28;20033;-66
2022/10/02 03:40:42;;;;;;;1.10;0.63;;;;;;;;;;5071309;28;20071;-67
2022/10/02 03:43:09;;;;;;;0.68;0.55;;;;;;;;;;5071889;28;20045;-67
2022/10/02 03:45:35;;;;;;;0.90;0.60;;;;;;;;;;5070502;28;20547;-67
2022/10/02 03:48:01;;;;;;;0.22;0.20;;;;;;;;;;5071693;28;20094;-67
2022/10/02 03:50:27;;;;;;;3.47;0.70;;;;;;;;;;5070223;28;20036;-67
2022/10/02 03:52:54;;;;;;;1.80;0.40;;;;;;;;;;5073106;28;21257;-67
2022/10/02 03:55:34;;;;;;;0.95;0.68;;;;;;;;;;5090161;28;20127;-67
2022/10/02 03:58:09;;;;;;;2.25;0.63;;;;;;;;;;5072652;28;20088;-67
2022/10/02 04:00:46;;;;;;;0.77;0.47;;;;;;;;;;5071281;28;20044;-66
2022/10/02 04:03:15;;;;;;;0.98;0.75;;;;;;;;;;5087457;28;20044;-67
2022/10/02 04:05:49;;;;;;;0.85;0.55;;;;;;;;;;5073349;28;20047;-67
2022/10/02 04:08:22;;;;;;;0.55;0.55;;;;;;;;;;5073337;28;20095;-67
2022/10/02 04:11:08;;;;;;;2.10;0.77;;;;;;;;;;5071753;28;20040;-67
2022/10/02 04:13:37;;;;;;;0.98;0.73;;;;;;;;;;5066313;28;20059;-67
2022/10/02 04:16:06;;;;;;;1.27;0.52;;;;;;;;;;5063624;28;20051;-66
2022/10/02 04:18:36;;;;;;;1.10;0.88;;;;;;;;;;5070880;28;20039;-66
2022/10/02 04:21:06;;;;;;;2.90;1.20;;;;;;;;;;5072306;28;20127;-67
2022/10/02 04:24:01;;;;;;;2.88;0.90;;;;;;;;;;5071989;28;20068;-67
2022/10/02 04:26:30;;;;;;;1.45;0.70;;;;;;;;;;5020317;28;20097;-67
2022/10/02 04:29:11;;;;;;;2.58;0.85;;;;;;;;;;5069102;28;20212;-67
2022/10/02 04:31:37;;;;;;;0.55;0.45;;;;;;;;;;5070592;28;20472;-67
2022/10/02 04:34:05;;;;;;;1.52;0.65;;;;;;;;;;5072129;28;20126;-67
2022/10/02 04:36:39;;;;;;;0.95;0.50;;;;;;;;;;5064647;28;21178;-67
2022/10/02 04:39:13;;;;;;;2.10;0.45;;;;;;;;;;5067274;28;20061;-67
2022/10/02 04:41:47;;;;;;;1.42;0.70;;;;;;;;;;5071093;28;20045;-67
2022/10/02 04:44:14;;;;;;;0.70;0.52;;;;;;;;;;5047053;28;20055;-67
2022/10/02 04:47:06;;;;;;;2.17;1.00;;;;;;;;;;5070464;28;20056;-68
2022/10/02 04:49:35;;;;;;;1.83;1.15;;;;;;;;;;5047956;28;20048;-67
2022/10/02 04:52:14;;;;;;;1.92;0.93;;;;;;;;;;5070788;28;20573;-67
2022/10/02 04:54:43;;;;;;;1.67;0.80;;;;;;;;;;5069158;28;20947;-67
2022/10/02 04:57:17;;;;;;;2.08;0.98;;;;;;;;;;5067671;28;20052;-67
2022/10/02 05:00:12;;;;;;;1.27;0.95;;;;;;;;;;5073472;28;20055;-67
2022/10/02 05:02:57;;;;;;;2.25;0.98;;;;;;;;;;5036309;28;20044;-68
2022/10/02 05:05:40;;;;;;;1.92;1.00;;;;;;;;;;5071458;28;20139;-67
2022/10/02 05:08:07;;;;;;;2.13;0.90;;;;;;;;;;5069362;28;20124;-67
2022/10/02 05:10:33;;;;;;;4.28;2.25;;;;;;;;;;5072883;28;20632;-68
2022/10/02 05:13:11;;;;;;;2.70;1.15;;;;;;;;;;5070470;28;20041;-67
2022/10/02 05:15:43;;;;;;;1.90;0.98;;;;;;;;;;5088730;28;20036;-67
2022/10/02 05:18:18;;;;;;;4.55;1.40;;;;;;;;;;5070341;28;20047;-67
2022/10/02 05:21:03;;;;;;;3.95;1.67;;;;;;;;;;5072608;28;20492;-67
2022/10/02 05:23:48;;;;;;;3.20;1.45;;;;;;;;;;5075024;28;20061;-67
2022/10/02 05:26:28;;;;;;;3.92;1.45;;;;;;;;;;5072153;28;20040;-67
2022/10/02 05:29:13;;;;;;;3.50;1.70;;;;;;;;;;5069776;28;21038;-67
2022/10/02 05:31:57;;;;;;;4.10;1.40;;;;;;;;;;5072917;28;20040;-67
2022/10/02 05:34:32;;;;;;;2.35;1.40;;;;;;;;;;5073302;28;20041;-68
2022/10/02 05:36:58;;;;;;;3.88;1.02;;;;;;;;;;5074639;28;20044;-67
2022/10/02 05:39:31;;;;;;;7.30;1.40;;;;;;;;;;5069128;28;20045;-67
2022/10/02 05:42:03;;;;;;;4.45;1.83;;;;;;;;;;5069349;28;20099;-67
2022/10/02 05:44:37;;;;;;;5.38;2.13;;;;;;;;;;5069824;28;20044;-67
2022/10/02 05:47:10;;;;;;;5.38;1.90;;;;;;;;;;5065226;28;20544;-67
2022/10/02 05:49:40;;;;;;;5.40;1.98;;;;;;;;;;5071781;28;20051;-67
2022/10/02 05:52:10;;;;;;;4.45;2.38;;;;;;;;;;5066682;28;20847;-67
2022/10/02 05:54:48;;;;;;;4.65;1.50;;;;;;;;;;5068282;28;20041;-67
2022/10/02 05:57:33;;;;;;;6.40;2.20;;;;;;;;;;5070992;28;20049;-67
2022/10/02 06:00:09;;;;;;;4.95;1.67;;;;;;;;;;5064347;28;20044;-67
2022/10/02 06:02:38;;;;;;;3.83;1.58;;;;;;;;;;5064116;28;20036;-67
2022/10/02 06:05:16;;;;;;;4.38;2.70;;;;;;;;;;5069626;28;20465;-67
2022/10/02 06:07:45;;;;;;;6.00;1.92;;;;;;;;;;5066476;28;20128;-68
2022/10/02 06:10:14;;;;;;;7.53;2.80;;;;;;;;;;5070574;28;20049;-67
2022/10/02 06:13:07;;;;;;;6.60;2.55;;;;;;;;;;5070180;28;20546;-68
2022/10/02 06:15:44;;;;;;;6.07;2.25;;;;;;;;;;5047693;28;20064;-68
2022/10/02 06:18:13;;;;;;;6.13;2.50;;;;;;;;;;5068078;28;20049;-67
2022/10/02 06:20:49;;;;;;;8.15;3.08;;;;;;;;;;5066502;28;20549;-67
2022/10/02 06:23:19;;;;;;;10.02;2.67;;;;;;;;;;5057545;28;20064;-68
2022/10/02 06:25:48;;;;;;;5.03;2.30;;;;;;;;;;5061372;28;20034;-68
2022/10/02 06:28:16;;;;;;;10.07;2.38;;;;;;;;;;5064396;28;20038;-68
2022/10/02 06:30:46;;;;;;;13.25;2.95;;;;;;;;;;5036594;28;20060;-68
2022/10/02 06:33:28;;;;;;;9.02;2.28;;;;;;;;;;5062868;28;20040;-68
2022/10/02 06:36:00;;;;;;;14.02;3.03;;;;;;;;;;5035117;28;20041;-67
2022/10/02 06:38:26;;;;;;;;;;;;;;;;;;5035279;28;20095;-68
2022/10/02 06:40:52;;;;;;;6.57;3.20;;;;;;;;;;5033434;28;20434;-68
2022/10/02 06:43:39;;;;;;;8.80;2.47;;;;;;;;;;5034915;28;20581;-67
2022/10/02 06:46:05;;;;;;;6.50;2.22;;;;;;;;;;5036597;28;20048;-67
2022/10/02 06:48:53;;;;;;;13.05;3.72;;;;;;;;;;5066179;28;20164;-67
2022/10/02 06:51:22;;;;;;;6.30;2.53;;;;;;;;;;4999944;28;20053;-67
2022/10/02 06:53:55;;;;;;;10.35;2.70;;;;;;;;;;5066941;28;20065;-68
2022/10/02 06:56:40;;;;;;;9.05;2.97;;;;;;;;;;5033517;28;20041;-68
2022/10/02 06:59:15;;;;;;;8.57;3.47;;;;;;;;;;5031695;28;20042;-67
2022/10/02 07:01:47;;;;;;;5.40;2.30;;;;;;;;;;5061232;28;20042;-68
2022/10/02 07:04:16;;;;;;;8.18;2.70;;;;;;;;;;5032468;28;20077;-67
2022/10/02 07:06:58;;;;;;;10.23;2.95;;;;;;;;;;5033255;28;20127;-68
2022/10/02 07:09:27;;;;;;;9.68;2.45;;;;;;;;;;5065334;28;20062;-68
2022/10/02 07:11:54;;;;;;;8.32;3.20;;;;;;;;;;5065767;28;20061;-67
2022/10/02 07:14:38;;;;;;;11.00;2.80;;;;;;;;;;5067398;28;20120;-67
2022/10/02 07:17:04;;;;;;;7.95;2.90;;;;;;;;;;5032656;28;20045;-68
2022/10/02 07:19:43;;;;;;;9.75;2.63;;;;;;;;;;5034139;28;20040;-68
2022/10/02 07:22:18;;;;;;;13.82;3.97;;;;;;;;;;5066698;28;20045;-67
2022/10/02 07:24:51;;;;;;;12.23;3.85;;;;;;;;;;5069528;28;20056;-67
2022/10/02 07:27:31;;;;;;;10.50;3.22;;;;;;;;;;5075730;28;20036;-67
2022/10/02 07:29:58;;;;;;;8.45;2.80;;;;;;;;;;5073855;28;20129;-68
2022/10/02 07:32:44;;;;;;;13.73;4.00;;;;;;;;;;5071655;28;20123;-67
2022/10/02 07:35:18;;;;;;;6.88;3.88;;;;;;;;;;5066253;28;20574;-68
2022/10/02 07:38:09;;;;;;;6.20;2.83;;;;;;;;;;5074510;28;20055;-67
2022/10/02 07:40:47;;;;;;;11.88;3.03;;;;;;;;;;5086947;28;20037;-67
2022/10/02 07:43:32;;;;;;;6.72;2.80;;;;;;;;;;5070061;28;20041;-67
2022/10/02 07:46:09;;;;;;;10.73;3.05;;;;;;;;;;5068592;28;20091;-68
2022/10/02 07:48:55;;;;;;;9.07;3.17;;;;;;;;;;5066292;28;20043;-68
2022/10/02 07:51:46;;;;;;;8.57;2.47;;;;;;;;;;5051999;28;20506;-68
2022/10/02 07:54:28;;;;;;;10.25;2.78;;;;;;;;;;5069538;28;20621;-68
2022/10/02 07:56:57;;;;;;;10.75;3.67;;;;;;;;;;5070114;28;20845;-68
2022/10/02 07:59:23;;;;;;;7.07;2.30;;;;;;;;;;5069166;28;20051;-68
2022/10/02 08:01:49;;;;;;;5.18;2.10;;;;;;;;;;5071001;28;20051;-77
2022/10/02 08:04:15;;;;;;;6.25;2.75;;;;;;;;;;5074368;28;20055;-72
2022/10/02 08:06:43;;;;;;;7.30;2.38;;;;;;;;;;5072398;28;20041;-73
2022/10/02 08:09:10;;;;;;;7.25;2.00;;;;;;;;;;5072639;28;20044;-72
2022/10/02 08:11:39;;;;;;;9.32;2.83;;;;;;;;;;5072458;28;20088;-71
2022/10/02 08:14:11;;;;;;;10.07;2.50;;;;;;;;;;5071453;28;20049;-72
2022/10/02 08:17:05;;;;;;;8.80;3.80;;;;;;;;;;5070926;28;20530;-72
2022/10/02 08:19:31;;;;;;;7.00;2.40;;;;;;;;;;5045451;28;20056;-71
2022/10/02 08:22:03;;;;;;;5.63;2.03;;;;;;;;;;5071745;28;20051;-71
2022/10/02 08:24:50;;;;;;;6.70;1.98;;;;;;;;;;5070832;28;20542;-71
2022/10/02 08:27:23;;;;;;;5.60;2.25;;;;;;;;;;5073832;28;20032;-71
2022/10/02 08:30:06;;;;;;;4.22;2.17;;;;;;;;;;5071515;28;20077;-71
2022/10/02 08:32:35;;;;;;;4.95;2.20;;;;;;;;;;5073173;28;20075;-72
2022/10/02 08:35:01;;;;;;;3.80;1.95;;;;;;;;;;5068551;28;20049;-68
2022/10/02 08:37:37;;;;;;;5.07;2.08;;;;;;;;;;5070310;28;20040;-68
2022/10/02 08:40:36;;;;;;;5.75;2.50;;;;;;;;;;5068540;28;20086;-69
2022/10/02 08:43:07;;;;;;;9.95;1.85;;;;;;;;;;5014603;28;20045;-69
2022/10/02 08:45:51;;;;;;;6.25;2.47;;;;;;;;;;5068355;28;20126;-69
2022/10/02 08:48:38;;;;;;;2.83;1.52;;;;;;;;;;5068310;28;20036;-69
2022/10/02 08:51:13;;;;;;;6.63;1.60;;;;;;;;;;5073285;28;20034;-68
2022/10/02 08:53:58;;;;;;;4.57;1.48;;;;;;;;;;5068963;28;20123;-68
2022/10/02 08:56:47;;;;;;;4.75;1.55;;;;;;;;;;5068067;28;20044;-68
2022/10/02 08:59:32;;;;;;;2.33;1.08;;;;;;;;;;5069476;28;20045;-68
2022/10/02 09:02:18;;;;;;;3.15;1.30;;;;;;;;;;5069404;28;20045;-68
2022/10/02 09:04:48;;;;;;;3.10;1.35;;;;;;;;;;5067956;28;20599;-68
2022/10/02 09:07:20;;;;;;;1.17;0.70;;;;;;;;;;5067345;28;20519;-68
2022/10/02 09:09:46;;;;;;;2.35;0.90;;;;;;;;;;5066718;28;20122;-68
2022/10/02 09:12:44;;;;;;;3.63;1.77;;;;;;;;;;5069985;28;20044;-68
2022/10/02 09:15:15;;;;;;;3.60;1.13;;;;;;;;;;5070038;28;20045;-68
2022/10/02 09:17:41;;;;;;;6.07;1.42;;;;;;;;;;5065108;28;20048;-68
2022/10/02 09:20:13;;;;;;;1.73;1.15;;;;;;;;;;5057108;28;20682;-68
2022/10/02 09:23:03;;;;;;;3.85;2.20;;;;;;;;;;5059552;28;20037;-68
2022/10/02 09:25:29;;;;;;;2.58;1.00;;;;;;;;;;5054085;28;20680;-68
2022/10/02 09:27:55;;;;;;;2.63;1.30;;;;;;;;;;5056769;28;20766;-68
2022/10/02 09:30:40;;;;;;;5.68;1.42;;;;;;;;;;5057537;28;20056;-68
2022/10/02 09:33:31;;;;;;;4.07;1.98;;;;;;;;;;5059351;28;20580;-68
2022/10/02 09:36:03;;;;;;;3.67;1.25;;;;;;;;;;5058631;28;20045;-68
2022/10/02 09:38:48;;;;;;;7.65;2.20;;;;;;;;;;5063734;28;21172;-68
2022/10/02 09:41:48;;;;;;;6.30;3.53;;;;;;;;;;5059702;28;20045;-68
2022/10/02 09:44:33;;;;;;;3.42;1.35;;;;;;;;;;5062594;28;20040;-68
2022/10/02 09:47:11;;;;;;;6.18;1.80;;;;;;;;;;5056022;28;20048;-68
2022/10/02 09:49:57;;;;;;;6.82;1.80;;;;;;;;;;5058441;28;20045;-68
2022/10/02 09:52:41;;;;;;;8.93;2.72;;;;;;;;;;5053469;28;20509;-68
2022/10/02 09:55:10;;;;;;;2.78;1.35;;;;;;;;;;5061615;28;20036;-68
2022/10/02 09:57:55;;;;;;;7.30;1.90;;;;;;;;;;5060372;28;20516;-68
2022/10/02 10:00:22;;;;;;;7.05;1.83;;;;;;;;;;5073821;28;21197;-68
2022/10/02 10:02:53;;;;;;;7.00;1.77;;;;;;;;;;5058876;28;20100;-74
2022/10/02 10:05:46;;;;;;;4.10;1.60;;;;;;;;;;5067002;28;20622;-72
2022/10/02 10:08:55;;;;;;;;;;;;;;;;;;;;;
2022/10/02 10:11:40;;;;;;;9.38;2.45;;;;;;;;;;5065965;28;43201;-72
2022/10/02 10:14:31;;;;;;;6.30;2.45;;;;;;;;;;5065405;28;20536;-70
2022/10/02 10:17:17;;;;;;;;;;;;;;;;;;;;;
2022/10/02 10:19:47;;;;;;;4.63;1.90;;;;;;;;;;5067286;28;39500;-78
2022/10/02 10:22:32;;;;;;;5.07;1.70;;;;;;;;;;5064402;28;20041;-70
2022/10/02 10:25:17;;;;;;;5.88;2.05;;;;;;;;;;5066309;28;20052;-73
2022/10/02 10:28:03;;;;;;;7.32;3.28;;;;;;;;;;5066985;28;20131;-79
2022/10/02 10:30:46;;;;;;;5.22;1.70;;;;;;;;;;5066026;28;20557;-76
2022/10/02 10:33:39;;;;;;;;;;;;;;;;;;;;;
2022/10/02 10:39:30;;;;;;;2.75;1.40;;;;;;;;;;5069163;28;22991;-76
2022/10/02 10:42:14;;;;;;;4.85;1.80;;;;;;;;;;5067427;28;20041;-78
2022/10/02 10:45:00;;;;;;;3.55;1.25;;;;;;;;;;5065469;28;20505;-71
2022/10/02 10:47:51;;;;;;;7.78;2.15;;;;;;;;;;5068654;28;20040;-75
2022/10/02 10:50:29;;;;;;;2.70;1.90;;;;;;;;;;5034198;28;20615;-69
2022/10/02 10:53:16;;;;;;;1.77;1.15;;;;;;;;;;5054782;28;20550;-69
2022/10/02 10:55:45;;;;;;;1.65;0.90;;;;;;;;;;5067009;28;20055;-69
2022/10/02 10:58:32;;;;;;;4.90;1.17;;;;;;;;;;5064366;28;20045;-70
2022/10/02 11:00:58;;;;;;;3.17;1.20;;;;;;;;;;5064824;28;20059;-75
2022/10/02 11:03:25;;;;;;;7.03;1.20;;;;;;;;;;5077015;28;20048;-72
2022/10/02 11:06:11;;;;;;;3.80;1.20;;;;;;;;;;5073803;28;20071;-71
2022/10/02 11:08:53;;;;;;;3.20;1.20;;;;;;;;;;5066274;28;20037;-71
2022/10/02 11:11:21;;;;;;;1.73;1.42;;;;;;;;;;5071686;28;20118;-71
2022/10/02 11:14:18;;;;;;;2.75;1.33;;;;;;;;;;5049689;28;20094;-75
2022/10/02 11:17:27;;;;;;;2.70;0.98;;;;;;;;;;5062163;28;20060;-74
2022/10/02 11:20:17;;;;;;;2.33;1.55;;;;;;;;;;5075049;28;20045;-74
2022/10/02 11:23:18;;;;;;;;;;;;;;;;;;;;;
2022/10/02 11:26:06;;;;;;;2.17;1.17;;;;;;;;;;5073560;28;39017;-73
2022/10/02 11:28:55;;;;;;;2.70;1.20;;;;;;;;;;5083289;28;20043;-74
2022/10/02 11:31:53;;;;;;;3.75;1.08;;;;;;;;;;5068747;28;20041;-75
2022/10/02 11:34:34;;;;;;;3.55;1.02;;;;;;;;;;5050601;28;20045;-70
2022/10/02 11:37:06;;;;;;;4.60;1.50;;;;;;;;;;5062933;28;20060;-68
2022/10/02 11:39:56;;;;;;;3.60;1.13;;;;;;;;;;5069305;28;20052;-68
2022/10/02 11:42:25;;;;;;;1.35;0.90;;;;;;;;;;5037422;28;20048;-68
2022/10/02 11:44:51;;;;;;;3.75;1.20;;;;;;;;;;5069580;28;20053;-68
2022/10/02 11:47:29;;;;;;;2.50;1.20;;;;;;;;;;5070789;28;20071;-69
2022/10/02 11:50:14;;;;;;;3.35;1.50;;;;;;;;;;5068773;28;20095;-68
2022/10/02 11:53:03;;;;;;;3.63;1.42;;;;;;;;;;5051647;28;20186;-74
2022/10/02 11:55:53;;;;;;;5.00;1.40;;;;;;;;;;5046684;28;20120;-68
2022/10/02 11:58:35;;;;;;;2.70;1.38;;;;;;;;;;5020457;28;20057;-68
2022/10/02 12:01:10;;;;;;;1.95;0.80;;;;;;;;;;5065533;28;20049;-68
2022/10/02 12:03:43;;;;;;;3.50;1.73;;;;;;;;;;5070491;28;20044;-68
2022/10/02 12:06:10;;;;;;;1.48;0.80;;;;;;;;;;5062500;28;20040;-68
2022/10/02 12:08:43;;;;;;;3.08;1.25;;;;;;;;;;5066568;28;20035;-68
2022/10/02 12:11:41;;;;;;;5.88;1.80;;;;;;;;;;5069772;28;20803;-68
2022/10/02 12:14:31;;;;;;;1.98;0.90;;;;;;;;;;5013623;28;20049;-68
2022/10/02 12:16:57;;;;;;;3.65;0.90;;;;;;;;;;5066267;28;20056;-68
2022/10/02 12:19:31;;;;;;;5.30;1.50;;;;;;;;;;5071810;28;20119;-68
2022/10/02 12:28:11;;;;;;;2.75;1.35;;;;;;;;;;5069438;28;21189;-68
2022/10/02 12:30:49;;;;;;;5.82;2.15;;;;;;;;;;5072885;28;20050;-69
2022/10/02 12:33:37;;;;;;;5.15;1.38;;;;;;;;;;5071992;28;20049;-73
2022/10/02 12:36:18;;;;;;;5.85;1.77;;;;;;;;;;5070134;28;20514;-73
2022/10/02 12:38:51;;;;;;;3.05;1.23;;;;;;;;;;5064926;28;20070;-69
2022/10/02 12:41:23;;;;;;;3.72;1.30;;;;;;;;;;5066185;28;20067;-71
2022/10/02 12:44:05;;;;;;;3.00;1.02;;;;;;;;;;5064840;28;20048;-70
2022/10/02 12:46:45;;;;;;;2.08;1.10;;;;;;;;;;5061208;28;20045;-69
2022/10/02 12:49:18;;;;;;;3.95;1.63;;;;;;;;;;5064063;28;20045;-68
2022/10/02 12:51:45;;;;;;;8.45;1.30;;;;;;;;;;5055639;28;20068;-69
2022/10/02 12:54:17;;;;;;;5.05;1.55;;;;;;;;;;5069413;28;20040;-69
2022/10/02 12:56:44;;;;;;;3.42;1.30;;;;;;;;;;5065996;28;20044;-69
2022/10/02 12:59:13;;;;;;;2.83;1.48;;;;;;;;;;5072600;28;20041;-71
2022/10/02 13:01:46;;;;;;;6.28;1.70;;;;;;;;;;5072875;28;20074;-68
2022/10/02 13:04:15;;;;;;;3.58;1.27;;;;;;;;;;5071805;28;20549;-68
2022/10/02 13:07:00;;;;;;;4.47;1.92;;;;;;;;;;5072239;28;20052;-69
2022/10/02 13:09:26;;;;;;;3.92;1.42;;;;;;;;;;5072283;28;20068;-68
2022/10/02 13:12:07;;;;;;;4.22;1.30;;;;;;;;;;5073252;28;20599;-68
2022/10/02 13:14:46;;;;;;;3.30;1.50;;;;;;;;;;5070055;28;20045;-69
2022/10/02 13:17:21;;;;;;;3.10;1.17;;;;;;;;;;5069210;28;20036;-74
2022/10/02 13:19:53;;;;;;;3.72;1.10;;;;;;;;;;5068210;28;20051;-68
2022/10/02 13:22:25;;;;;;;4.00;1.40;;;;;;;;;;5070807;28;20045;-68
2022/10/02 13:24:52;;;;;;;4.20;1.35;;;;;;;;;;5067064;28;21020;-69
2022/10/02 13:27:18;;;;;;;5.35;1.95;;;;;;;;;;5068317;28;20086;-68
2022/10/02 13:30:04;;;;;;;6.82;1.60;;;;;;;;;;5057916;28;20044;-69
2022/10/02 13:32:45;;;;;;;6.32;1.80;;;;;;;;;;5069256;28;20041;-69
2022/10/02 13:35:27;;;;;;;1.55;0.85;;;;;;;;;;5067647;28;20389;-68
2022/10/02 13:38:12;;;;;;;5.00;1.45;;;;;;;;;;5070282;28;20037;-68
2022/10/02 13:40:57;;;;;;;3.92;1.40;;;;;;;;;;5075532;28;20047;-68
2022/10/02 13:43:28;;;;;;;3.20;1.00;;;;;;;;;;5074991;28;20041;-68
2022/10/02 13:46:13;;;;;;;1.25;0.80;;;;;;;;;;5074214;28;20053;-68
2022/10/02 13:48:54;;;;;;;4.70;1.60;;;;;;;;;;5075513;28;20036;-68
2022/10/02 13:51:24;;;;;;;4.95;1.65;;;;;;;;;;5074833;28;20036;-67
2022/10/02 13:53:56;;;;;;;7.05;2.28;;;;;;;;;;5076525;28;20041;-68
2022/10/02 13:56:22;;;;;;;2.60;1.35;;;;;;;;;;5076794;28;20048;-68
2022/10/02 13:59:07;;;;;;;8.35;2.67;;;;;;;;;;5074066;28;20098;-68
2022/10/02 14:01:33;;;;;;;4.28;1.83;;;;;;;;;;5057013;28;20056;-68
2022/10/02 14:04:18;;;;;;;4.97;1.48;;;;;;;;;;5076300;28;20036;-68
2022/10/02 14:06:48;;;;;;;5.03;1.23;;;;;;;;;;5076557;28;20064;-68
2022/10/02 14:09:20;;;;;;;3.25;1.08;;;;;;;;;;5075384;28;20071;-69
2022/10/02 14:11:52;;;;;;;3.10;2.10;;;;;;;;;;5076252;28;20049;-69
2022/10/02 14:14:21;;;;;;;6.90;1.25;;;;;;;;;;5074511;28;20048;-68
2022/10/02 14:17:07;;;;;;;4.13;1.55;;;;;;;;;;5074662;28;20072;-69
2022/10/02 14:19:39;;;;;;;2.88;1.27;;;;;;;;;;5075653;28;20160;-68
2022/10/02 14:22:05;;;;;;;3.00;1.27;;;;;;;;;;5076737;28;20045;-69
2022/10/02 14:27:39;;;;;;;3.15;1.00;;;;;;;;;;5074882;28;20048;-68
2022/10/02 14:30:15;;;;;;;2.80;1.05;;;;;;;;;;5058539;28;20040;-68
2022/10/02 14:32:47;;;;;;;4.03;1.30;;;;;;;;;;5072235;28;21143;-68
2022/10/02 14:35:20;;;;;;;3.42;0.93;;;;;;;;;;5076005;28;20123;-68
2022/10/02 14:37:54;;;;;;;1.65;1.17;;;;;;;;;;5075473;28;20477;-68
2022/10/02 14:40:20;;;;;;;8.15;1.27;;;;;;;;;;5076395;28;20044;-68
2022/10/02 14:43:06;;;;;;;2.50;1.00;;;;;;;;;;5074121;28;20040;-68
2022/10/02 14:45:51;;;;;;;2.13;0.80;;;;;;;;;;5075553;28;20159;-68
2022/10/02 14:48:36;;;;;;;2.80;0.70;;;;;;;;;;5073850;28;20053;-68
2022/10/02 14:51:21;;;;;;;2.08;0.80;;;;;;;;;;5073505;28;20037;-68
2022/10/02 14:53:48;;;;;;;1.88;0.85;;;;;;;;;;5057973;28;20036;-68
2022/10/02 14:56:14;;;;;;;1.73;0.80;;;;;;;;;;5068627;28;20048;-75
2022/10/02 14:58:52;;;;;;;3.05;0.50;;;;;;;;;;5070312;28;20117;-68
2022/10/02 15:01:22;;;;;;;2.25;0.90;;;;;;;;;;5068234;28;20056;-68
2022/10/02 15:04:03;;;;;;;1.58;0.80;;;;;;;;;;5068693;28;20035;-68
2022/10/02 15:06:32;;;;;;;1.55;0.60;;;;;;;;;;5067517;28;20049;-68
2022/10/02 15:09:00;;;;;;;3.83;1.10;;;;;;;;;;5062635;28;20465;-71
2022/10/02 15:11:27;;;;;;;4.32;0.90;;;;;;;;;;5070475;28;20055;-69
2022/10/02 15:13:59;;;;;;;2.83;1.00;;;;;;;;;;5062538;28;20111;-68
2022/10/02 15:19:16;;;;;;;1.05;0.80;;;;;;;;;;5073296;28;20044;-69
2022/10/02 15:21:50;;;;;;;4.20;1.08;;;;;;;;;;5071005;28;20532;-68
2022/10/02 15:24:40;;;;;;;3.35;1.08;;;;;;;;;;5069467;28;20055;-68
2022/10/02 15:27:10;;;;;;;2.38;0.95;;;;;;;;;;5046027;28;20051;-68
2022/10/02 15:29:46;;;;;;;3.33;1.30;;;;;;;;;;5072188;28;20052;-68
2022/10/02 15:32:33;;;;;;;3.05;1.42;;;;;;;;;;5067674;28;20040;-69
2022/10/02 15:35:03;;;;;;;2.88;1.10;;;;;;;;;;5068916;28;20041;-68
2022/10/02 15:37:41;;;;;;;1.90;0.90;;;;;;;;;;5050682;28;20056;-68
2022/10/02 15:40:28;;;;;;;1.27;1.00;;;;;;;;;;5065104;28;20044;-68
2022/10/02 15:42:56;;;;;;;2.00;1.23;;;;;;;;;;5072374;28;20036;-68
2022/10/02 15:45:26;;;;;;;5.13;1.33;;;;;;;;;;5069486;28;20519;-68
2022/10/02 15:48:05;;;;;;;3.95;0.80;;;;;;;;;;5065136;28;20036;-68
2022/10/02 15:50:31;;;;;;;3.88;0.95;;;;;;;;;;5084970;28;20049;-68
2022/10/02 15:52:57;;;;;;;6.53;1.98;;;;;;;;;;5071120;28;20040;-67